Karlovac, Croatia
Current Conditions -  °F | °C
As of 11:30 AM on Monday 24 Nov 2014 (Local Time) from LJCE Reporting Station
Overcast Overcast  
Wind Chill: 36°   Ceiling: 1000
Heat Index: 39°   Visibility: 6mi
Dew Point: 36°   Wind: 5mph
Humidity: 87%   Direction: 290°WNW
Pressure: 30.33"   Gusts: NA
Location:  45.5°N, 15.54°E
Report Text: LJCE 240930Z 29004KT 250V320 9999 OVC010 04/02 Q1027 RMK GRN
Loading
Personal Weather Stations






























Interactive Weather Map New forecast layout! Learn more

10-Day Weather Forecast

Advertisements
Track Severe Weather on mobile